首页
METAR-TAF:

METAR-TAF

机场 :

奧斯拉瓦河畔納梅什季, 捷克共和国

纬度: 49-09-57N, 经度: 16-07-30E, 海拔: 472米

当前天气观测

该预报发布于17分钟前的11:00 UTC
风速6节,风向,在东北东转东南之间变化
温度 17°C
湿度 25%
气压 1022 hPa
能见度10公里或以上
1500米以下无云,无积雨云

METAR: LKNA 211100Z 08006KT 040V110 CAVOK 17/M03 Q1022 NOSIG RMK BLU BLU

时间: 13:17 (11:17 UTC)

预报

该预报发布于6小时和17分钟前的05:00 UTC
预报有效从21日的 06点(UTC)到 22日的 06点(UTC)
风速5节,风向北转西北
能见度10公里或以上
1500米以下无云,无积雨云
短暂存在
从 21日的 06点(UTC)到 22日的 00点(UTC)
风速10节,风向东北

TAF: LKNA 210500Z 2106/2206 34005KT CAVOK TEMPO 2106/2200 04010KT

超过4000个机场的气象观测和天气预报(METAR&TAF报告)。

可查询的气象台以黄色和红色小点在地图上表示。

将鼠标移到小点上方,可查看气象台名称。

然后点击查看天气观测和预报。

如需切换地图:点击带黑十字的绿色按钮放大地图;点击带横线的绿色按钮缩小地图;或者点击绿色箭头查看邻近地区的地图。


METAR-TAF: